Time;durP1;ratioP1;P1;durP2;ratioP2;P2;SDS_P1;SDS_P2;PMS_P1;PMS_P2;Temp;Humidity;BMP_temperature;BMP_pressure;BME280_temperature;BME280_humidity;BME280_pressure;Samples;Min_cycle;Max_cycle;Signal;HPM_P1;HPM_P2
2022/03/07 00:00:23;;;;;;;23.95;18.02;;;3.70;99.90;;;;;;5054640;28;20214;-70
2022/03/07 00:02:50;;;;;;;23.63;17.10;;;3.60;99.90;;;;;;5054828;28;20258;-71
2022/03/07 00:05:18;;;;;;;27.75;17.38;;;3.50;99.90;;;;;;5055469;28;20638;-70
2022/03/07 00:07:46;;;;;;;23.75;17.85;;;3.50;99.90;;;;;;5054979;28;20247;-70
2022/03/07 00:10:13;;;;;;;23.98;18.67;;;3.30;99.90;;;;;;5054666;28;20207;-70
2022/03/07 00:12:40;;;;;;;24.65;18.42;;;3.30;99.90;;;;;;5047027;28;20278;-71
2022/03/07 00:15:08;;;;;;;25.73;19.25;;;3.30;99.90;;;;;;5055087;28;20199;-73
2022/03/07 00:17:34;;;;;;;26.85;18.70;;;3.30;99.90;;;;;;5054853;28;20644;-70
2022/03/07 00:20:01;;;;;;;29.40;19.70;;;3.30;99.90;;;;;;5054100;28;20221;-71
2022/03/07 00:22:28;;;;;;;29.10;18.73;;;3.20;99.90;;;;;;5054093;28;20255;-70
2022/03/07 00:24:57;;;;;;;24.23;18.48;;;3.30;99.90;;;;;;5055723;28;20283;-71
2022/03/07 00:27:24;;;;;;;26.98;17.90;;;3.30;99.90;;;;;;5051024;28;20208;-72
2022/03/07 00:29:52;;;;;;;30.48;20.33;;;3.10;99.90;;;;;;5054992;28;20306;-70
2022/03/07 00:32:19;;;;;;;28.20;19.45;;;3.20;99.90;;;;;;5053755;28;20258;-71
2022/03/07 00:34:45;;;;;;;23.25;19.08;;;3.20;99.90;;;;;;5053828;28;20302;-71
2022/03/07 00:37:12;;;;;;;23.55;18.75;;;3.20;99.90;;;;;;5047981;28;20298;-71
2022/03/07 00:39:39;;;;;;;23.42;18.77;;;3.20;99.90;;;;;;5053322;28;20286;-70
2022/03/07 00:42:08;;;;;;;26.90;21.58;;;3.20;99.90;;;;;;5054627;28;20233;-70
2022/03/07 00:44:35;;;;;;;27.27;19.17;;;3.20;99.90;;;;;;5054346;28;20287;-70
2022/03/07 00:47:02;;;;;;;26.13;19.25;;;3.20;99.90;;;;;;5054396;28;20206;-71
2022/03/07 00:49:29;;;;;;;27.77;19.90;;;3.20;99.90;;;;;;5053304;28;20286;-70
2022/03/07 00:51:57;;;;;;;31.95;20.77;;;3.30;99.90;;;;;;5053619;28;20223;-71
2022/03/07 00:54:24;;;;;;;23.20;18.67;;;3.20;99.90;;;;;;5054463;28;20225;-70
2022/03/07 00:56:51;;;;;;;25.13;19.35;;;3.30;99.90;;;;;;5053595;28;20209;-72
2022/03/07 00:59:19;;;;;;;29.67;18.15;;;3.30;99.90;;;;;;5054582;28;20242;-72
2022/03/07 01:01:47;;;;;;;22.20;18.00;;;3.30;99.90;;;;;;5053650;28;20229;-71
2022/03/07 01:04:14;;;;;;;25.33;18.48;;;3.30;99.90;;;;;;5047050;28;20298;-71
2022/03/07 01:06:42;;;;;;;26.85;19.35;;;3.30;99.90;;;;;;5053956;28;20313;-71
2022/03/07 01:09:09;;;;;;;28.88;18.95;;;3.20;99.90;;;;;;5054512;28;20195;-70
2022/03/07 01:11:36;;;;;;;24.10;18.38;;;3.10;99.90;;;;;;5052792;28;20720;-71
2022/03/07 01:14:04;;;;;;;28.98;19.30;;;3.10;99.90;;;;;;5045813;28;20218;-72
2022/03/07 01:16:33;;;;;;;27.75;19.02;;;3.00;99.90;;;;;;5053990;28;20294;-70
2022/03/07 01:19:00;;;;;;;23.92;17.17;;;2.90;99.90;;;;;;5053594;28;20218;-70
2022/03/07 01:21:29;;;;;;;24.60;18.13;;;2.90;99.90;;;;;;5052862;28;20250;-71
2022/03/07 01:23:56;;;;;;;28.20;20.02;;;2.80;99.90;;;;;;5053173;28;20198;-70
2022/03/07 01:26:23;;;;;;;25.35;19.05;;;2.80;99.90;;;;;;5052852;28;20235;-71
2022/03/07 01:28:50;;;;;;;28.58;17.70;;;2.80;99.90;;;;;;5053587;28;20198;-70
2022/03/07 01:31:17;;;;;;;25.63;18.60;;;2.80;99.90;;;;;;5053115;28;20219;-70
2022/03/07 01:33:45;;;;;;;28.40;18.58;;;2.80;99.90;;;;;;5052685;28;20220;-70
2022/03/07 01:36:12;;;;;;;24.70;16.70;;;2.70;99.90;;;;;;5053431;28;20353;-70
2022/03/07 01:38:39;;;;;;;20.42;18.08;;;2.70;99.90;;;;;;5053217;28;20234;-70
2022/03/07 01:41:06;;;;;;;25.85;17.42;;;2.70;99.90;;;;;;5052722;28;20223;-71
2022/03/07 01:43:33;;;;;;;20.50;16.15;;;2.60;99.90;;;;;;5053434;28;20246;-70
2022/03/07 01:46:00;;;;;;;21.67;16.70;;;2.60;99.90;;;;;;5053938;28;20199;-70
2022/03/07 01:48:27;;;;;;;29.15;17.83;;;2.60;99.90;;;;;;5052628;28;20299;-72
2022/03/07 01:50:56;;;;;;;25.65;17.60;;;2.60;99.90;;;;;;5052124;28;20666;-70
2022/03/07 01:53:25;;;;;;;22.00;18.00;;;2.70;99.90;;;;;;5052911;28;20212;-70
2022/03/07 01:55:52;;;;;;;23.33;16.88;;;2.70;99.90;;;;;;5052229;28;20622;-71
2022/03/07 01:58:19;;;;;;;24.67;17.38;;;2.60;99.90;;;;;;5048782;28;20295;-70
2022/03/07 02:00:47;;;;;;;23.17;17.40;;;2.60;99.90;;;;;;5048902;28;20287;-71
2022/03/07 02:03:14;;;;;;;23.75;17.60;;;2.70;99.90;;;;;;5053017;28;20206;-70
2022/03/07 02:05:41;;;;;;;28.85;18.67;;;2.60;99.90;;;;;;5052915;28;20309;-70
2022/03/07 02:08:09;;;;;;;24.05;17.17;;;2.60;99.90;;;;;;5054767;28;20203;-70
2022/03/07 02:10:38;;;;;;;20.77;16.55;;;2.50;99.90;;;;;;5052810;28;20676;-70
2022/03/07 02:13:11;;;;;;;24.73;18.33;;;2.50;99.90;;;;;;5047530;28;20231;-70
2022/03/07 02:15:38;;;;;;;23.60;18.40;;;2.50;99.90;;;;;;5051025;28;20279;-70
2022/03/07 02:18:05;;;;;;;28.63;18.05;;;2.50;99.90;;;;;;5046489;28;20230;-69
2022/03/07 02:20:42;;;;;;;26.30;18.05;;;2.40;99.90;;;;;;5051414;28;20192;-71
2022/03/07 02:23:10;;;;;;;40.63;21.50;;;2.40;99.90;;;;;;5039777;28;20208;-69
2022/03/07 02:25:38;;;;;;;34.58;22.63;;;2.30;99.90;;;;;;5050051;28;20196;-71
2022/03/07 02:28:05;;;;;;;30.00;19.20;;;2.30;99.90;;;;;;5052757;28;20242;-69
2022/03/07 02:30:33;;;;;;;29.83;20.33;;;2.30;99.90;;;;;;5051853;28;20235;-71
2022/03/07 02:33:00;;;;;;;31.40;20.08;;;2.20;99.90;;;;;;5050640;28;20234;-72
2022/03/07 02:35:27;;;;;;;33.10;21.85;;;2.20;99.90;;;;;;5052738;28;20246;-70
2022/03/07 02:37:54;;;;;;;30.02;20.67;;;2.20;99.90;;;;;;5052992;28;20196;-70
2022/03/07 02:40:22;;;;;;;34.80;21.05;;;2.20;99.90;;;;;;5052239;28;20218;-70
2022/03/07 02:42:54;;;;;;;31.48;19.95;;;2.30;99.90;;;;;;5052450;28;20310;-71
2022/03/07 02:45:21;;;;;;;33.78;21.00;;;2.30;99.90;;;;;;5052193;28;20203;-70
2022/03/07 02:47:48;;;;;;;29.30;21.55;;;2.30;99.90;;;;;;5052226;28;20200;-70
2022/03/07 02:50:15;;;;;;;29.92;19.35;;;2.40;99.90;;;;;;5051721;28;20238;-71
2022/03/07 02:52:42;;;;;;;29.17;19.85;;;2.40;99.90;;;;;;5052109;28;20679;-71
2022/03/07 02:55:10;;;;;;;31.42;22.20;;;2.40;99.90;;;;;;5052760;28;20303;-71
2022/03/07 02:57:39;;;;;;;28.08;18.90;;;2.40;99.90;;;;;;5052600;28;20218;-70
2022/03/07 03:00:07;;;;;;;24.70;19.08;;;2.50;99.90;;;;;;5051619;28;20463;-70
2022/03/07 03:02:34;;;;;;;29.30;20.02;;;2.40;99.90;;;;;;5052451;28;20773;-71
2022/03/07 03:05:01;;;;;;;37.70;20.98;;;2.60;99.90;;;;;;5052073;28;20196;-71
2022/03/07 03:07:28;;;;;;;29.73;17.58;;;2.60;99.90;;;;;;5053029;28;20237;-71
2022/03/07 03:09:55;;;;;;;31.23;18.98;;;2.60;99.90;;;;;;5051847;28;20282;-71
2022/03/07 03:12:24;;;;;;;25.92;18.92;;;2.50;99.90;;;;;;5055092;28;20301;-71
2022/03/07 03:14:52;;;;;;;30.90;19.40;;;2.50;99.90;;;;;;5054229;28;20249;-71
2022/03/07 03:17:19;;;;;;;29.08;18.80;;;2.50;99.90;;;;;;5051118;28;20239;-71
2022/03/07 03:19:46;;;;;;;28.50;20.35;;;2.50;99.90;;;;;;5056445;28;20211;-70
2022/03/07 03:22:13;;;;;;;25.15;19.25;;;2.50;99.90;;;;;;5051437;28;20231;-71
2022/03/07 03:24:40;;;;;;;27.67;19.33;;;2.50;99.90;;;;;;5053663;28;20231;-71
2022/03/07 03:27:08;;;;;;;33.45;21.00;;;2.60;99.90;;;;;;5056070;28;20629;-70
2022/03/07 03:29:35;;;;;;;34.13;23.17;;;2.60;99.90;;;;;;5055508;28;20659;-71
2022/03/07 03:32:03;;;;;;;33.63;21.05;;;2.60;99.90;;;;;;5055572;28;20306;-70
2022/03/07 03:34:30;;;;;;;35.05;22.45;;;2.60;99.90;;;;;;5055604;28;20251;-71
2022/03/07 03:36:57;;;;;;;29.30;21.13;;;2.50;99.90;;;;;;5056162;28;20290;-72
2022/03/07 03:39:25;;;;;;;31.50;21.58;;;2.60;99.90;;;;;;5055811;28;20201;-71
2022/03/07 03:41:52;;;;;;;38.85;24.13;;;2.60;99.90;;;;;;5055029;28;20666;-71
2022/03/07 03:44:18;;;;;;;38.88;22.40;;;2.60;99.90;;;;;;5056118;28;20206;-71
2022/03/07 03:46:47;;;;;;;37.25;22.88;;;2.50;99.90;;;;;;5056157;28;20311;-71
2022/03/07 03:49:16;;;;;;;35.60;21.95;;;2.50;99.90;;;;;;5055115;28;20218;-71
2022/03/07 03:51:43;;;;;;;40.20;23.92;;;2.50;99.90;;;;;;5055315;28;20223;-71
2022/03/07 03:54:10;;;;;;;32.22;23.08;;;2.50;99.90;;;;;;5054527;28;20215;-72
2022/03/07 03:56:37;;;;;;;39.67;21.02;;;2.60;99.90;;;;;;5056436;28;20203;-72
2022/03/07 03:59:04;;;;;;;33.17;20.88;;;2.70;99.90;;;;;;5056154;28;20222;-71
2022/03/07 04:01:31;;;;;;;33.33;19.25;;;2.80;99.90;;;;;;5046810;28;20307;-70
2022/03/07 04:03:58;;;;;;;81.45;27.63;;;2.90;99.90;;;;;;5055255;28;20685;-71
2022/03/07 04:06:27;;;;;;;52.75;22.67;;;2.90;99.90;;;;;;5055595;28;20282;-71
2022/03/07 04:09:15;;;;;;;36.83;22.50;;;2.90;99.90;;;;;;5055246;28;20204;-71
2022/03/07 04:11:42;;;;;;;59.40;24.05;;;2.90;99.90;;;;;;5054810;28;20255;-71
2022/03/07 04:14:09;;;;;;;56.20;27.23;;;2.90;99.90;;;;;;5055638;28;20304;-71
2022/03/07 04:16:38;;;;;;;61.72;28.52;;;2.90;99.90;;;;;;5055881;28;20278;-71
2022/03/07 04:19:07;;;;;;;48.92;27.77;;;2.90;99.90;;;;;;5054905;28;20211;-71
2022/03/07 04:21:39;;;;;;;56.15;24.83;;;2.80;99.90;;;;;;5053588;28;20263;-71
2022/03/07 04:24:13;;;;;;;70.15;29.05;;;2.80;99.90;;;;;;5046337;28;20211;-72
2022/03/07 04:26:41;;;;;;;63.05;28.42;;;2.80;99.90;;;;;;5055118;28;20235;-71
2022/03/07 04:29:09;;;;;;;42.58;24.85;;;2.80;99.90;;;;;;5055217;28;20199;-69
2022/03/07 04:31:36;;;;;;;73.72;30.60;;;2.70;99.90;;;;;;5048680;28;20224;-70
2022/03/07 04:34:04;;;;;;;61.53;30.80;;;2.70;99.90;;;;;;5054692;28;20233;-70
2022/03/07 04:36:32;;;;;;;55.67;28.80;;;2.60;99.90;;;;;;5054459;28;20654;-70
2022/03/07 04:39:00;;;;;;;67.07;30.88;;;2.40;99.90;;;;;;5055004;28;20227;-71
2022/03/07 04:41:27;;;;;;;71.53;29.88;;;2.50;99.90;;;;;;5054265;28;20773;-71
2022/03/07 04:43:57;;;;;;;62.97;30.90;;;2.60;99.90;;;;;;5055110;28;20192;-71
2022/03/07 04:46:24;;;;;;;56.03;29.80;;;2.60;99.90;;;;;;5054664;28;20275;-71
2022/03/07 04:48:52;;;;;;;45.92;26.80;;;2.80;99.90;;;;;;5054913;28;20669;-71
2022/03/07 04:51:18;;;;;;;66.63;31.60;;;2.60;99.90;;;;;;5054404;28;20566;-71
2022/03/07 04:53:46;;;;;;;57.50;29.42;;;2.70;99.90;;;;;;5054815;28;20261;-70
2022/03/07 04:56:14;;;;;;;58.72;27.65;;;2.60;99.90;;;;;;5055018;28;20237;-71
2022/03/07 04:58:41;;;;;;;57.03;29.65;;;2.50;99.90;;;;;;5054813;28;20249;-71
2022/03/07 05:01:09;;;;;;;49.95;26.70;;;2.40;99.90;;;;;;5053498;28;20314;-71
2022/03/07 05:03:36;;;;;;;43.08;22.55;;;2.50;99.90;;;;;;5054647;28;20221;-70
2022/03/07 05:06:04;;;;;;;39.53;22.40;;;2.60;99.90;;;;;;5054430;28;20250;-69
2022/03/07 05:08:31;;;;;;;83.30;27.08;;;2.60;99.90;;;;;;5053684;28;20238;-71
2022/03/07 05:10:58;;;;;;;58.30;23.83;;;2.60;99.90;;;;;;5053417;28;20195;-69
2022/03/07 05:13:26;;;;;;;33.45;21.73;;;2.40;99.90;;;;;;5052909;28;20207;-71
2022/03/07 05:15:53;;;;;;;85.05;28.23;;;2.40;99.90;;;;;;5053962;28;20322;-69
2022/03/07 05:18:20;;;;;;;47.15;22.23;;;2.30;99.90;;;;;;5053550;28;20286;-70
2022/03/07 05:20:47;;;;;;;47.97;24.17;;;2.30;99.90;;;;;;5053424;28;20210;-70
2022/03/07 05:23:13;;;;;;;42.63;23.48;;;2.20;99.90;;;;;;5054268;28;20214;-69
2022/03/07 05:25:40;;;;;;;66.53;27.13;;;2.20;99.90;;;;;;5052719;28;20207;-70
2022/03/07 05:28:07;;;;;;;39.17;22.13;;;2.20;99.90;;;;;;5052655;28;20292;-71
2022/03/07 05:30:36;;;;;;;125.18;32.35;;;2.10;99.90;;;;;;5053516;28;20230;-70
2022/03/07 05:33:03;;;;;;;43.78;23.75;;;2.10;99.90;;;;;;5043958;28;20711;-69
2022/03/07 05:35:30;;;;;;;57.28;22.75;;;2.00;99.90;;;;;;5053290;28;20310;-71
2022/03/07 05:37:57;;;;;;;45.40;23.08;;;2.00;99.90;;;;;;5052475;28;20238;-71
2022/03/07 05:40:24;;;;;;;35.47;22.63;;;1.90;99.90;;;;;;5053209;28;20210;-71
2022/03/07 05:42:51;;;;;;;143.45;34.78;;;1.90;99.90;;;;;;5053270;28;20314;-70
2022/03/07 05:45:18;;;;;;;59.45;25.70;;;1.80;99.90;;;;;;5053648;28;20647;-70
2022/03/07 05:47:46;;;;;;;49.60;25.33;;;1.70;99.90;;;;;;5053622;28;20286;-70
2022/03/07 05:50:14;;;;;;;69.22;29.15;;;1.60;99.90;;;;;;5054417;28;20300;-72
2022/03/07 05:52:40;;;;;;;42.47;25.67;;;1.60;99.90;;;;;;5054467;28;20269;-71
2022/03/07 05:55:08;;;;;;;81.60;28.42;;;1.60;99.90;;;;;;5052805;28;20269;-71
2022/03/07 05:57:36;;;;;;;48.22;26.30;;;1.70;99.90;;;;;;5053678;28;20234;-71
2022/03/07 06:00:04;;;;;;;34.00;21.02;;;1.70;99.90;;;;;;5052469;28;20207;-71
2022/03/07 06:02:31;;;;;;;49.55;25.92;;;1.80;99.90;;;;;;5051849;28;20232;-71
2022/03/07 06:05:00;;;;;;;48.35;24.08;;;1.80;99.90;;;;;;5052393;28;20209;-70
2022/03/07 06:07:26;;;;;;;40.80;24.58;;;1.70;99.90;;;;;;5052807;28;20202;-71
2022/03/07 06:09:53;;;;;;;47.10;25.20;;;1.70;99.90;;;;;;5052330;28;20239;-71
2022/03/07 06:12:21;;;;;;;74.32;26.80;;;1.80;99.90;;;;;;5052712;28;20223;-71
2022/03/07 06:14:48;;;;;;;43.60;24.38;;;1.80;99.90;;;;;;5052415;28;20577;-70
2022/03/07 06:17:15;;;;;;;47.60;25.80;;;1.80;99.90;;;;;;5040264;28;20203;-71
2022/03/07 06:19:42;;;;;;;36.53;24.33;;;1.70;99.90;;;;;;5048866;28;20622;-70
2022/03/07 06:22:10;;;;;;;43.33;24.63;;;1.70;99.90;;;;;;5045919;28;20309;-69
2022/03/07 06:24:37;;;;;;;37.00;22.80;;;1.70;99.90;;;;;;5049543;28;20625;-73
2022/03/07 06:27:04;;;;;;;43.30;24.80;;;1.80;99.90;;;;;;5046073;28;20199;-71
2022/03/07 06:29:31;;;;;;;33.92;21.50;;;1.90;99.90;;;;;;5052186;28;20203;-73
2022/03/07 06:31:58;;;;;;;54.95;25.00;;;1.90;99.90;;;;;;5051259;28;20227;-72
2022/03/07 06:34:25;;;;;;;39.92;22.77;;;2.00;99.90;;;;;;5052014;28;20298;-70
2022/03/07 06:36:52;;;;;;;34.03;21.77;;;2.00;99.90;;;;;;5051938;28;20211;-72
2022/03/07 06:39:25;;;;;;;35.53;18.85;;;2.10;99.90;;;;;;5051948;28;20607;-70
2022/03/07 06:41:52;;;;;;;27.67;18.75;;;2.10;99.90;;;;;;5051341;28;20223;-72
2022/03/07 06:44:19;;;;;;;36.55;20.88;;;2.20;99.90;;;;;;5051474;28;20199;-72
2022/03/07 06:46:46;;;;;;;32.28;20.58;;;2.20;99.90;;;;;;5051496;28;20294;-71
2022/03/07 06:49:13;;;;;;;36.40;19.17;;;2.10;99.90;;;;;;5052257;28;20196;-72
2022/03/07 06:51:40;;;;;;;44.78;23.27;;;2.10;99.90;;;;;;5051716;28;20251;-72
2022/03/07 06:54:07;;;;;;;54.30;23.02;;;2.30;99.90;;;;;;5052011;28;20250;-72
2022/03/07 06:56:36;;;;;;;34.53;20.65;;;2.20;99.90;;;;;;5052142;28;20212;-72
2022/03/07 06:59:03;;;;;;;27.25;19.27;;;2.30;99.90;;;;;;5048816;28;20204;-72
2022/03/07 07:01:30;;;;;;;30.23;19.90;;;2.40;99.90;;;;;;5046628;28;20254;-71
2022/03/07 07:03:57;;;;;;;34.38;19.92;;;2.40;99.90;;;;;;5052331;28;20227;-70
2022/03/07 07:06:25;;;;;;;39.08;19.58;;;2.40;99.90;;;;;;5051915;28;20724;-71
2022/03/07 07:08:51;;;;;;;30.80;20.75;;;2.40;99.90;;;;;;5051970;28;20282;-72
2022/03/07 07:11:18;;;;;;;30.65;21.35;;;2.40;99.90;;;;;;5051001;28;20314;-72
2022/03/07 07:13:47;;;;;;;26.50;17.52;;;2.40;99.90;;;;;;5052169;28;20235;-72
2022/03/07 07:16:14;;;;;;;31.05;21.15;;;2.40;99.90;;;;;;5051974;28;20306;-72
2022/03/07 07:18:41;;;;;;;27.00;16.63;;;2.50;99.90;;;;;;5052052;28;20603;-72
2022/03/07 07:21:08;;;;;;;34.50;19.60;;;2.50;99.90;;;;;;5050969;28;20760;-75
2022/03/07 07:23:36;;;;;;;29.55;20.55;;;2.50;99.90;;;;;;5050968;28;20199;-71
2022/03/07 07:26:04;;;;;;;37.03;21.27;;;2.50;99.90;;;;;;5051793;28;20200;-73
2022/03/07 07:28:31;;;;;;;36.60;20.13;;;2.50;99.90;;;;;;5052902;28;20382;-72
2022/03/07 07:30:59;;;;;;;40.05;20.67;;;2.50;99.90;;;;;;5050572;28;20211;-70
2022/03/07 07:33:26;;;;;;;33.65;21.40;;;2.50;99.90;;;;;;5051636;28;20290;-69
2022/03/07 07:35:53;;;;;;;26.13;18.98;;;2.60;99.90;;;;;;5052392;28;20302;-69
2022/03/07 07:38:22;;;;;;;29.98;18.33;;;2.70;99.90;;;;;;5052129;28;20310;-68
2022/03/07 07:40:49;;;;;;;37.65;20.83;;;2.70;99.90;;;;;;5051167;28;20223;-68
2022/03/07 07:43:17;;;;;;;25.27;16.48;;;2.70;99.90;;;;;;5053239;28;20606;-68
2022/03/07 07:45:44;;;;;;;25.77;17.20;;;3.10;99.90;;;;;;5051595;28;20286;-69
2022/03/07 07:48:12;;;;;;;24.08;17.67;;;3.20;99.90;;;;;;5051739;28;20289;-67
2022/03/07 07:50:39;;;;;;;23.58;17.30;;;3.50;99.90;;;;;;5050482;28;20625;-70
2022/03/07 07:53:13;;;;;;;28.73;18.95;;;3.10;99.90;;;;;;5050227;28;20302;-68
2022/03/07 07:55:40;;;;;;;27.58;18.77;;;3.20;99.90;;;;;;5048018;28;20225;-67
2022/03/07 07:58:08;;;;;;;29.83;21.40;;;3.10;99.90;;;;;;5050861;28;20281;-69
2022/03/07 08:00:35;;;;;;;27.30;20.88;;;3.10;99.90;;;;;;5050510;28;20203;-68
2022/03/07 08:03:02;;;;;;;29.65;20.77;;;3.10;99.90;;;;;;5054609;28;20222;-69
2022/03/07 08:05:30;;;;;;;31.40;19.40;;;3.10;99.90;;;;;;5051791;28;20707;-69
2022/03/07 08:07:57;;;;;;;29.00;19.73;;;3.10;99.90;;;;;;5046567;28;20202;-70
2022/03/07 08:10:24;;;;;;;30.88;21.05;;;3.30;99.90;;;;;;5050832;28;20657;-69
2022/03/07 08:12:51;;;;;;;25.40;19.83;;;3.50;99.90;;;;;;5055072;28;20223;-70
2022/03/07 08:15:18;;;;;;;29.25;20.10;;;3.60;99.90;;;;;;5054721;28;20701;-71
2022/03/07 08:17:49;;;;;;;24.50;17.73;;;3.60;99.90;;;;;;5053470;28;20297;-68
2022/03/07 08:20:20;;;;;;;28.90;19.65;;;3.70;99.90;;;;;;5041180;28;20730;-69
2022/03/07 08:22:49;;;;;;;30.55;20.10;;;3.60;99.90;;;;;;5045813;28;20342;-70
2022/03/07 08:25:17;;;;;;;32.20;21.08;;;3.50;99.90;;;;;;5037059;28;20205;-69
2022/03/07 08:27:44;;;;;;;37.83;23.75;;;3.40;99.90;;;;;;5039145;28;20565;-70
2022/03/07 08:30:13;;;;;;;36.50;22.48;;;3.50;99.90;;;;;;5054021;28;20302;-71
2022/03/07 08:32:41;;;;;;;29.55;21.50;;;3.60;99.90;;;;;;5054487;28;20255;-70
2022/03/07 08:35:10;;;;;;;29.23;19.08;;;3.70;99.90;;;;;;5053429;28;20231;-70
2022/03/07 08:37:38;;;;;;;30.52;19.73;;;3.60;99.90;;;;;;5050301;28;20667;-70
2022/03/07 08:40:09;;;;;;;37.40;21.00;;;3.70;99.90;;;;;;5053601;28;20208;-71
2022/03/07 08:42:36;;;;;;;32.53;20.52;;;3.80;99.90;;;;;;5052698;28;20389;-71
2022/03/07 08:45:04;;;;;;;32.30;22.67;;;3.70;99.90;;;;;;5044881;28;20206;-69
2022/03/07 08:47:31;;;;;;;28.58;19.58;;;3.80;99.90;;;;;;5040729;28;20203;-68
2022/03/07 08:49:58;;;;;;;36.05;21.52;;;3.60;99.90;;;;;;5049368;28;20283;-70
2022/03/07 08:52:25;;;;;;;34.95;23.55;;;3.60;99.90;;;;;;5053624;28;20255;-69
2022/03/07 08:54:52;;;;;;;28.77;21.70;;;3.60;99.90;;;;;;5052225;28;20195;-70
2022/03/07 08:57:20;;;;;;;30.52;20.73;;;3.80;99.90;;;;;;5053711;28;20231;-70
2022/03/07 08:59:47;;;;;;;28.55;17.35;;;4.10;99.90;;;;;;5053228;28;20207;-69
2022/03/07 09:02:14;;;;;;;30.17;19.70;;;4.30;99.90;;;;;;5054048;28;20224;-68
2022/03/07 09:04:41;;;;;;;30.27;18.48;;;4.50;99.90;;;;;;5053667;28;20566;-69
2022/03/07 09:07:08;;;;;;;28.15;17.88;;;4.50;99.90;;;;;;5052662;28;20282;-70
2022/03/07 09:09:36;;;;;;;21.67;17.23;;;4.60;99.90;;;;;;5052851;28;20672;-68
2022/03/07 09:12:05;;;;;;;24.85;18.23;;;4.80;99.90;;;;;;5052847;28;20322;-69
2022/03/07 09:14:33;;;;;;;18.42;13.63;;;5.50;99.90;;;;;;5053568;28;20632;-68
2022/03/07 09:17:00;;;;;;;19.92;15.45;;;6.90;99.90;;;;;;5052204;28;20231;-68
2022/03/07 09:19:28;;;;;;;15.88;12.57;;;8.30;99.90;;;;;;5053426;28;20227;-68
2022/03/07 09:21:55;;;;;;;17.33;14.52;;;10.20;99.90;;;;;;5053411;28;20223;-69
2022/03/07 09:24:22;;;;;;;26.30;15.38;;;11.50;99.30;;;;;;5053453;28;20261;-69
2022/03/07 09:26:49;;;;;;;16.35;13.15;;;11.50;95.90;;;;;;5054970;28;20662;-68
2022/03/07 09:29:16;;;;;;;26.48;14.77;;;12.00;95.60;;;;;;5056238;28;20239;-69
2022/03/07 09:31:44;;;;;;;22.67;15.43;;;12.40;93.60;;;;;;5055462;28;20224;-69
2022/03/07 09:34:12;;;;;;;18.27;15.25;;;12.70;92.10;;;;;;5050667;28;20236;-68
2022/03/07 09:36:39;;;;;;;18.52;15.23;;;12.80;91.20;;;;;;5052460;28;20309;-68
2022/03/07 09:39:07;;;;;;;18.30;14.80;;;13.00;90.90;;;;;;5060334;28;20231;-71
2022/03/07 09:41:34;;;;;;;18.15;14.82;;;13.40;89.50;;;;;;5051874;28;20221;-69
2022/03/07 09:44:01;;;;;;;20.58;16.40;;;13.60;88.10;;;;;;5052688;28;20313;-67
2022/03/07 09:46:28;;;;;;;22.95;18.83;;;13.50;88.30;;;;;;5052790;28;20202;-68
2022/03/07 09:48:58;;;;;;;22.27;16.40;;;13.70;88.20;;;;;;5052892;28;20211;-69
2022/03/07 09:51:24;;;;;;;17.95;15.20;;;13.50;88.00;;;;;;5052173;28;20223;-68
2022/03/07 09:53:51;;;;;;;20.58;15.85;;;14.00;87.30;;;;;;5052977;28;20215;-69
2022/03/07 09:56:18;;;;;;;22.80;17.10;;;14.40;86.10;;;;;;5052953;28;20246;-69
2022/03/07 09:58:45;;;;;;;18.90;15.30;;;14.60;85.10;;;;;;5052686;28;20541;-68
2022/03/07 10:01:15;;;;;;;20.13;16.13;;;14.70;83.80;;;;;;5052340;28;20232;-69
2022/03/07 10:03:42;;;;;;;20.55;16.08;;;14.40;83.20;;;;;;5052208;28;20201;-68
2022/03/07 10:06:15;;;;;;;19.35;16.52;;;14.40;84.30;;;;;;5052626;28;20210;-69
2022/03/07 10:08:52;;;;;;;21.35;14.65;;;14.10;84.30;;;;;;5052132;28;20257;-69
2022/03/07 10:11:19;;;;;;;21.23;17.13;;;14.00;85.00;;;;;;5051777;28;20310;-68
2022/03/07 10:13:57;;;;;;;18.67;16.52;;;14.00;85.50;;;;;;5052481;28;20653;-69
2022/03/07 10:16:24;;;;;;;21.45;16.20;;;13.40;85.70;;;;;;5052424;28;20306;-69
2022/03/07 10:18:53;;;;;;;25.08;17.80;;;12.90;86.20;;;;;;5052377;28;20613;-68
2022/03/07 10:21:26;;;;;;;22.33;16.25;;;12.70;88.20;;;;;;5050377;28;20270;-68
2022/03/07 10:23:54;;;;;;;24.20;17.50;;;12.50;89.70;;;;;;5052142;28;20689;-69
2022/03/07 10:26:21;;;;;;;19.30;15.30;;;12.90;89.70;;;;;;5052581;28;20286;-69
2022/03/07 10:28:55;;;;;;;19.95;16.13;;;12.40;89.50;;;;;;5052245;28;20212;-69
2022/03/07 10:31:23;;;;;;;22.60;16.92;;;12.80;89.50;;;;;;5051213;28;20215;-69
2022/03/07 10:34:02;;;;;;;23.27;19.60;;;12.40;88.90;;;;;;5052193;28;20207;-69
2022/03/07 10:36:35;;;;;;;26.50;18.17;;;12.00;89.60;;;;;;5051796;28;20253;-69
2022/03/07 10:39:04;;;;;;;22.50;17.33;;;12.10;90.70;;;;;;5052057;28;20238;-68
2022/03/07 10:41:39;;;;;;;19.98;15.65;;;12.20;90.30;;;;;;5051158;28;20236;-68
2022/03/07 10:44:07;;;;;;;17.95;14.13;;;12.30;90.40;;;;;;5045791;28;20739;-70
2022/03/07 10:46:34;;;;;;;19.50;15.38;;;12.20;90.20;;;;;;5052155;28;20606;-68
2022/03/07 10:49:01;;;;;;;23.05;15.85;;;12.10;90.70;;;;;;5051186;28;20674;-69
2022/03/07 10:51:29;;;;;;;21.55;16.00;;;11.80;90.30;;;;;;5042695;28;20231;-69
2022/03/07 10:54:10;;;;;;;24.50;15.95;;;11.70;90.90;;;;;;5050883;28;20234;-69
2022/03/07 10:56:37;;;;;;;17.30;13.27;;;11.40;91.70;;;;;;5052319;28;20295;-68
2022/03/07 10:59:11;;;;;;;17.85;14.20;;;11.30;92.00;;;;;;5051974;28;20202;-68
2022/03/07 11:01:38;;;;;;;20.13;14.10;;;11.00;92.20;;;;;;5051432;28;20271;-69
2022/03/07 11:04:05;;;;;;;22.00;14.77;;;10.90;92.60;;;;;;5051715;28;20379;-70
2022/03/07 11:06:32;;;;;;;19.20;15.45;;;10.70;93.40;;;;;;5051578;28;20286;-68
2022/03/07 11:09:00;;;;;;;18.05;13.65;;;10.40;93.60;;;;;;5051860;28;20235;-68
2022/03/07 11:11:27;;;;;;;22.67;14.95;;;10.50;93.80;;;;;;5051265;28;20236;-69
2022/03/07 11:13:58;;;;;;;17.67;14.32;;;10.20;94.00;;;;;;5052517;28;20260;-70
2022/03/07 11:16:31;;;;;;;19.80;14.48;;;10.30;93.80;;;;;;5052933;28;20537;-69
2022/03/07 11:18:59;;;;;;;24.17;16.00;;;10.30;94.00;;;;;;5052576;28;20250;-68
2022/03/07 11:21:27;;;;;;;24.38;17.00;;;10.30;95.20;;;;;;5052187;28;20289;-69
2022/03/07 11:23:56;;;;;;;15.07;11.60;;;10.40;94.70;;;;;;5050592;28;20261;-69
2022/03/07 11:26:26;;;;;;;8.35;6.65;;;10.60;94.00;;;;;;5051497;28;20235;-69
2022/03/07 11:28:57;;;;;;;10.15;6.22;;;10.60;90.80;;;;;;5051709;28;20207;-69
2022/03/07 11:31:26;;;;;;;8.43;6.95;;;10.60;89.30;;;;;;5045874;28;20223;-69
2022/03/07 11:33:55;;;;;;;9.27;8.13;;;10.80;90.10;;;;;;5055079;28;20270;-69
2022/03/07 11:36:26;;;;;;;8.77;5.85;;;11.10;90.30;;;;;;5055280;28;20223;-70
2022/03/07 11:38:56;;;;;;;4.72;3.63;;;11.30;88.80;;;;;;5056342;28;20205;-70
2022/03/07 11:41:29;;;;;;;5.38;4.00;;;11.50;84.40;;;;;;5048780;28;20694;-68
2022/03/07 11:43:57;;;;;;;4.80;3.22;;;11.70;81.60;;;;;;5055250;28;20291;-69
2022/03/07 11:46:26;;;;;;;4.60;2.97;;;11.70;80.80;;;;;;5055843;28;20204;-69
2022/03/07 11:48:53;;;;;;;4.10;2.80;;;11.60;78.70;;;;;;5055399;28;20283;-70
2022/03/07 11:51:23;;;;;;;3.63;2.65;;;11.50;77.60;;;;;;5054425;28;20709;-69
2022/03/07 11:53:51;;;;;;;2.45;2.25;;;11.50;77.70;;;;;;5055526;28;20197;-68
2022/03/07 11:56:19;;;;;;;3.17;2.88;;;11.50;76.80;;;;;;5055453;28;20304;-68
2022/03/07 11:58:53;;;;;;;3.10;2.55;;;11.50;78.20;;;;;;5055264;28;20223;-68
2022/03/07 12:01:21;;;;;;;2.50;2.10;;;11.40;77.90;;;;;;5054300;28;20736;-67
2022/03/07 12:03:48;;;;;;;6.13;2.50;;;11.30;78.70;;;;;;5052944;28;20201;-69
2022/03/07 12:06:17;;;;;;;2.53;2.10;;;11.30;77.30;;;;;;5054289;28;20205;-69
2022/03/07 12:08:47;;;;;;;4.30;3.33;;;11.50;76.40;;;;;;5051433;28;20200;-68
2022/03/07 12:11:29;;;;;;;7.65;3.80;;;11.30;76.80;;;;;;5053890;28;20231;-68
2022/03/07 12:14:02;;;;;;;4.07;3.28;;;11.20;78.80;;;;;;5054394;28;20200;-71
2022/03/07 12:16:32;;;;;;;6.47;4.78;;;11.10;78.10;;;;;;5054390;28;20682;-69
2022/03/07 12:19:11;;;;;;;3.67;3.00;;;11.00;79.50;;;;;;5054614;28;20213;-69
2022/03/07 12:21:42;;;;;;;4.00;3.53;;;11.10;80.10;;;;;;5048394;28;20235;-69
2022/03/07 12:24:11;;;;;;;6.15;3.42;;;11.10;80.60;;;;;;5054961;28;20281;-69
2022/03/07 12:26:49;;;;;;;6.05;4.45;;;11.00;80.30;;;;;;5054176;28;20311;-68
2022/03/07 12:29:19;;;;;;;6.20;3.40;;;10.80;80.70;;;;;;5054888;28;20214;-69
2022/03/07 12:31:54;;;;;;;4.13;2.95;;;10.60;81.50;;;;;;5054337;28;20251;-69
2022/03/07 12:34:23;;;;;;;3.22;2.92;;;10.60;80.00;;;;;;5054483;28;20314;-70
2022/03/07 12:37:01;;;;;;;5.10;3.33;;;10.40;79.10;;;;;;5053424;28;20314;-69
2022/03/07 12:39:31;;;;;;;3.90;2.90;;;10.40;79.20;;;;;;5049192;28;20207;-69